sensor_id;sensor_type;location;lat;lon;timestamp;temperature;humidity
15900;DHT22;8048;50.644;6.184;2024-01-10T00:00:18;-4.40;75.90
15900;DHT22;8048;50.644;6.184;2024-01-10T00:02:43;-4.40;74.90
15900;DHT22;8048;50.644;6.184;2024-01-10T00:05:09;-4.40;76.20
15900;DHT22;8048;50.644;6.184;2024-01-10T00:07:34;-4.60;77.80
15900;DHT22;8048;50.644;6.184;2024-01-10T00:10:02;-4.60;79.10
15900;DHT22;8048;50.644;6.184;2024-01-10T00:12:28;-4.70;78.90
15900;DHT22;8048;50.644;6.184;2024-01-10T00:14:58;-4.70;79.90
15900;DHT22;8048;50.644;6.184;2024-01-10T00:17:24;-4.70;80.40
15900;DHT22;8048;50.644;6.184;2024-01-10T00:19:50;-4.80;79.20
15900;DHT22;8048;50.644;6.184;2024-01-10T00:22:15;-4.80;80.40
15900;DHT22;8048;50.644;6.184;2024-01-10T00:24:41;-4.80;78.40
15900;DHT22;8048;50.644;6.184;2024-01-10T00:27:06;-4.90;79.70
15900;DHT22;8048;50.644;6.184;2024-01-10T00:29:32;-5.00;80.30
15900;DHT22;8048;50.644;6.184;2024-01-10T00:31:57;-5.00;80.30
15900;DHT22;8048;50.644;6.184;2024-01-10T00:34:25;-5.10;79.30
15900;DHT22;8048;50.644;6.184;2024-01-10T00:36:50;-5.10;79.50
15900;DHT22;8048;50.644;6.184;2024-01-10T00:39:16;-5.20;80.00
15900;DHT22;8048;50.644;6.184;2024-01-10T00:41:41;-5.20;81.20
15900;DHT22;8048;50.644;6.184;2024-01-10T00:44:07;-5.20;82.00
15900;DHT22;8048;50.644;6.184;2024-01-10T00:46:32;-5.20;81.40
15900;DHT22;8048;50.644;6.184;2024-01-10T00:48:58;-5.20;81.50
15900;DHT22;8048;50.644;6.184;2024-01-10T00:51:23;-5.20;81.70
15900;DHT22;8048;50.644;6.184;2024-01-10T00:53:49;-5.30;82.20
15900;DHT22;8048;50.644;6.184;2024-01-10T00:56:14;-5.30;82.60
15900;DHT22;8048;50.644;6.184;2024-01-10T00:58:40;-5.30;82.80
15900;DHT22;8048;50.644;6.184;2024-01-10T01:01:06;-5.30;82.60
15900;DHT22;8048;50.644;6.184;2024-01-10T01:03:32;-5.30;82.70
15900;DHT22;8048;50.644;6.184;2024-01-10T01:05:57;-5.40;82.20
15900;DHT22;8048;50.644;6.184;2024-01-10T01:08:23;-5.40;82.50
15900;DHT22;8048;50.644;6.184;2024-01-10T01:10:48;-5.40;82.00
15900;DHT22;8048;50.644;6.184;2024-01-10T01:13:14;-5.40;82.20
15900;DHT22;8048;50.644;6.184;2024-01-10T01:15:40;-5.30;81.70
15900;DHT22;8048;50.644;6.184;2024-01-10T01:18:05;-5.30;82.90
15900;DHT22;8048;50.644;6.184;2024-01-10T01:20:32;-5.30;82.90
15900;DHT22;8048;50.644;6.184;2024-01-10T01:22:58;-5.30;82.80
15900;DHT22;8048;50.644;6.184;2024-01-10T01:25:24;-5.40;83.70
15900;DHT22;8048;50.644;6.184;2024-01-10T01:27:49;-5.40;84.60
15900;DHT22;8048;50.644;6.184;2024-01-10T01:30:15;-5.40;83.60
15900;DHT22;8048;50.644;6.184;2024-01-10T01:32:40;-5.40;83.40
15900;DHT22;8048;50.644;6.184;2024-01-10T01:35:06;-5.40;82.60
15900;DHT22;8048;50.644;6.184;2024-01-10T01:37:31;-5.40;82.40
15900;DHT22;8048;50.644;6.184;2024-01-10T01:39:57;-5.40;83.80
15900;DHT22;8048;50.644;6.184;2024-01-10T01:42:22;-5.30;83.90
15900;DHT22;8048;50.644;6.184;2024-01-10T01:44:48;-5.30;83.40
15900;DHT22;8048;50.644;6.184;2024-01-10T01:47:14;-5.40;84.20
15900;DHT22;8048;50.644;6.184;2024-01-10T01:49:43;-5.40;84.30
15900;DHT22;8048;50.644;6.184;2024-01-10T01:52:09;-5.40;84.40
15900;DHT22;8048;50.644;6.184;2024-01-10T01:54:35;-5.40;83.80
15900;DHT22;8048;50.644;6.184;2024-01-10T01:57:01;-5.40;83.70
15900;DHT22;8048;50.644;6.184;2024-01-10T01:59:27;-5.30;83.10
15900;DHT22;8048;50.644;6.184;2024-01-10T02:01:54;-5.30;81.10
15900;DHT22;8048;50.644;6.184;2024-01-10T02:04:20;-5.30;82.40
15900;DHT22;8048;50.644;6.184;2024-01-10T02:06:45;-5.30;83.00
15900;DHT22;8048;50.644;6.184;2024-01-10T02:09:11;-5.30;82.60
15900;DHT22;8048;50.644;6.184;2024-01-10T02:11:37;-5.30;82.60
15900;DHT22;8048;50.644;6.184;2024-01-10T02:14:02;-5.30;82.70
15900;DHT22;8048;50.644;6.184;2024-01-10T02:16:29;-5.30;81.50
15900;DHT22;8048;50.644;6.184;2024-01-10T02:18:54;-5.30;81.10
15900;DHT22;8048;50.644;6.184;2024-01-10T02:21:21;-5.30;81.00
15900;DHT22;8048;50.644;6.184;2024-01-10T02:23:47;-5.30;81.30
15900;DHT22;8048;50.644;6.184;2024-01-10T02:26:13;-5.30;82.20
15900;DHT22;8048;50.644;6.184;2024-01-10T02:28:39;-5.20;83.00
15900;DHT22;8048;50.644;6.184;2024-01-10T02:31:05;-5.20;82.90
15900;DHT22;8048;50.644;6.184;2024-01-10T02:33:31;-5.20;83.30
15900;DHT22;8048;50.644;6.184;2024-01-10T02:35:57;-5.20;82.60
15900;DHT22;8048;50.644;6.184;2024-01-10T02:38:22;-5.20;82.30
15900;DHT22;8048;50.644;6.184;2024-01-10T02:40:49;-5.30;83.20
15900;DHT22;8048;50.644;6.184;2024-01-10T02:43:14;-5.30;83.90
15900;DHT22;8048;50.644;6.184;2024-01-10T02:45:40;-5.30;83.90
15900;DHT22;8048;50.644;6.184;2024-01-10T02:48:06;-5.30;84.20
15900;DHT22;8048;50.644;6.184;2024-01-10T02:50:31;-5.30;84.00
15900;DHT22;8048;50.644;6.184;2024-01-10T02:52:57;-5.30;84.00
15900;DHT22;8048;50.644;6.184;2024-01-10T02:55:22;-5.30;84.20
15900;DHT22;8048;50.644;6.184;2024-01-10T02:57:48;-5.30;84.60
15900;DHT22;8048;50.644;6.184;2024-01-10T03:00:13;-5.30;84.40
15900;DHT22;8048;50.644;6.184;2024-01-10T03:02:39;-5.40;85.00
15900;DHT22;8048;50.644;6.184;2024-01-10T03:05:05;-5.50;85.50
15900;DHT22;8048;50.644;6.184;2024-01-10T03:07:30;-5.60;85.10
15900;DHT22;8048;50.644;6.184;2024-01-10T03:09:56;-5.60;85.50
15900;DHT22;8048;50.644;6.184;2024-01-10T03:12:21;-5.60;85.40
15900;DHT22;8048;50.644;6.184;2024-01-10T03:14:47;-5.60;84.70
15900;DHT22;8048;50.644;6.184;2024-01-10T03:17:12;-5.50;84.30
15900;DHT22;8048;50.644;6.184;2024-01-10T03:19:38;-5.40;84.30
15900;DHT22;8048;50.644;6.184;2024-01-10T03:22:08;-5.40;83.70
15900;DHT22;8048;50.644;6.184;2024-01-10T03:24:33;-5.30;84.20
15900;DHT22;8048;50.644;6.184;2024-01-10T03:26:59;-5.30;84.20
15900;DHT22;8048;50.644;6.184;2024-01-10T03:29:24;-5.10;81.90
15900;DHT22;8048;50.644;6.184;2024-01-10T03:31:50;-5.10;80.60
15900;DHT22;8048;50.644;6.184;2024-01-10T03:34:16;-5.00;80.40
15900;DHT22;8048;50.644;6.184;2024-01-10T03:36:43;-5.00;79.90
15900;DHT22;8048;50.644;6.184;2024-01-10T03:39:09;-5.10;80.00
15900;DHT22;8048;50.644;6.184;2024-01-10T03:41:34;-5.10;81.50
15900;DHT22;8048;50.644;6.184;2024-01-10T03:44:00;-5.10;81.30
15900;DHT22;8048;50.644;6.184;2024-01-10T03:46:25;-5.00;81.20
15900;DHT22;8048;50.644;6.184;2024-01-10T03:48:51;-5.00;79.60
15900;DHT22;8048;50.644;6.184;2024-01-10T03:51:18;-5.00;80.80
15900;DHT22;8048;50.644;6.184;2024-01-10T03:53:44;-5.00;79.60
15900;DHT22;8048;50.644;6.184;2024-01-10T03:56:11;-5.00;79.90
15900;DHT22;8048;50.644;6.184;2024-01-10T03:58:37;-4.90;81.80
15900;DHT22;8048;50.644;6.184;2024-01-10T04:01:09;-4.90;80.60
15900;DHT22;8048;50.644;6.184;2024-01-10T04:03:35;-4.90;80.50
15900;DHT22;8048;50.644;6.184;2024-01-10T04:06:02;-5.00;80.30
15900;DHT22;8048;50.644;6.184;2024-01-10T04:08:28;-4.90;80.90
15900;DHT22;8048;50.644;6.184;2024-01-10T04:10:53;-4.90;81.10
15900;DHT22;8048;50.644;6.184;2024-01-10T04:13:19;-4.80;81.30
15900;DHT22;8048;50.644;6.184;2024-01-10T04:15:44;-4.80;80.30
15900;DHT22;8048;50.644;6.184;2024-01-10T04:18:10;-4.70;80.60
15900;DHT22;8048;50.644;6.184;2024-01-10T04:20:35;-4.70;81.60
15900;DHT22;8048;50.644;6.184;2024-01-10T04:23:01;-4.60;82.00
15900;DHT22;8048;50.644;6.184;2024-01-10T04:25:27;-4.70;81.00
15900;DHT22;8048;50.644;6.184;2024-01-10T04:27:52;-4.70;80.20
15900;DHT22;8048;50.644;6.184;2024-01-10T04:30:18;-4.70;79.80
15900;DHT22;8048;50.644;6.184;2024-01-10T04:32:43;-4.60;79.40
15900;DHT22;8048;50.644;6.184;2024-01-10T04:35:09;-4.60;79.60
15900;DHT22;8048;50.644;6.184;2024-01-10T04:37:35;-4.60;79.30
15900;DHT22;8048;50.644;6.184;2024-01-10T04:40:00;-4.60;78.70
15900;DHT22;8048;50.644;6.184;2024-01-10T04:42:26;-4.60;80.80
15900;DHT22;8048;50.644;6.184;2024-01-10T04:44:52;-4.60;80.50
15900;DHT22;8048;50.644;6.184;2024-01-10T04:47:17;-4.60;81.30
15900;DHT22;8048;50.644;6.184;2024-01-10T04:49:43;-4.60;82.10
15900;DHT22;8048;50.644;6.184;2024-01-10T04:52:08;-4.60;81.40
15900;DHT22;8048;50.644;6.184;2024-01-10T04:54:34;-4.60;81.50
15900;DHT22;8048;50.644;6.184;2024-01-10T04:56:59;-4.60;82.20
15900;DHT22;8048;50.644;6.184;2024-01-10T04:59:25;-4.60;82.70
15900;DHT22;8048;50.644;6.184;2024-01-10T05:01:50;-4.60;81.90
15900;DHT22;8048;50.644;6.184;2024-01-10T05:04:16;-4.60;81.60
15900;DHT22;8048;50.644;6.184;2024-01-10T05:06:41;-4.60;82.30
15900;DHT22;8048;50.644;6.184;2024-01-10T05:09:07;-4.70;82.50
15900;DHT22;8048;50.644;6.184;2024-01-10T05:11:32;-4.70;82.70
15900;DHT22;8048;50.644;6.184;2024-01-10T05:14:01;-4.70;83.60
15900;DHT22;8048;50.644;6.184;2024-01-10T05:16:26;-4.70;83.00
15900;DHT22;8048;50.644;6.184;2024-01-10T05:18:52;-4.70;83.00
15900;DHT22;8048;50.644;6.184;2024-01-10T05:21:17;-4.70;84.30
15900;DHT22;8048;50.644;6.184;2024-01-10T05:23:43;-4.70;83.20
15900;DHT22;8048;50.644;6.184;2024-01-10T05:26:09;-4.70;82.00
15900;DHT22;8048;50.644;6.184;2024-01-10T05:28:34;-4.70;81.00
15900;DHT22;8048;50.644;6.184;2024-01-10T05:31:00;-4.70;81.20
15900;DHT22;8048;50.644;6.184;2024-01-10T05:33:26;-4.70;80.50
15900;DHT22;8048;50.644;6.184;2024-01-10T05:35:51;-4.70;81.10
15900;DHT22;8048;50.644;6.184;2024-01-10T05:38:17;-4.70;81.00
15900;DHT22;8048;50.644;6.184;2024-01-10T05:40:42;-4.60;81.10
15900;DHT22;8048;50.644;6.184;2024-01-10T05:43:08;-4.60;79.50
15900;DHT22;8048;50.644;6.184;2024-01-10T05:45:35;-4.70;79.40
15900;DHT22;8048;50.644;6.184;2024-01-10T05:48:01;-4.60;79.40
15900;DHT22;8048;50.644;6.184;2024-01-10T05:50:26;-4.70;79.00
15900;DHT22;8048;50.644;6.184;2024-01-10T05:52:52;-4.60;80.50
15900;DHT22;8048;50.644;6.184;2024-01-10T05:55:18;-4.60;80.10
15900;DHT22;8048;50.644;6.184;2024-01-10T05:57:44;-4.50;80.20
15900;DHT22;8048;50.644;6.184;2024-01-10T06:00:10;-4.50;80.40
15900;DHT22;8048;50.644;6.184;2024-01-10T06:02:37;-4.50;79.40
15900;DHT22;8048;50.644;6.184;2024-01-10T06:05:10;-4.50;79.30
15900;DHT22;8048;50.644;6.184;2024-01-10T06:07:39;-4.50;79.50
15900;DHT22;8048;50.644;6.184;2024-01-10T06:10:08;-4.40;80.40
15900;DHT22;8048;50.644;6.184;2024-01-10T06:12:35;-4.30;79.60
15900;DHT22;8048;50.644;6.184;2024-01-10T06:15:00;-4.30;78.70
15900;DHT22;8048;50.644;6.184;2024-01-10T06:17:26;-4.30;79.50
15900;DHT22;8048;50.644;6.184;2024-01-10T06:19:52;-4.30;79.00
15900;DHT22;8048;50.644;6.184;2024-01-10T06:22:17;-4.30;78.90
15900;DHT22;8048;50.644;6.184;2024-01-10T06:24:44;-4.40;78.70
15900;DHT22;8048;50.644;6.184;2024-01-10T06:27:09;-4.30;78.00
15900;DHT22;8048;50.644;6.184;2024-01-10T06:29:36;-4.30;79.00
15900;DHT22;8048;50.644;6.184;2024-01-10T06:32:05;-4.40;79.70
15900;DHT22;8048;50.644;6.184;2024-01-10T06:34:31;-4.40;79.80
15900;DHT22;8048;50.644;6.184;2024-01-10T06:36:58;-4.30;79.40
15900;DHT22;8048;50.644;6.184;2024-01-10T06:39:23;-4.30;79.30
15900;DHT22;8048;50.644;6.184;2024-01-10T06:41:49;-4.30;79.60
15900;DHT22;8048;50.644;6.184;2024-01-10T06:44:14;-4.40;79.10
15900;DHT22;8048;50.644;6.184;2024-01-10T06:46:43;-4.30;80.10
15900;DHT22;8048;50.644;6.184;2024-01-10T06:49:09;-4.20;77.80
15900;DHT22;8048;50.644;6.184;2024-01-10T06:51:34;-4.20;77.90
15900;DHT22;8048;50.644;6.184;2024-01-10T06:54:00;-4.10;79.30
15900;DHT22;8048;50.644;6.184;2024-01-10T06:56:32;-4.10;76.50
15900;DHT22;8048;50.644;6.184;2024-01-10T06:58:59;-4.10;75.80
15900;DHT22;8048;50.644;6.184;2024-01-10T07:01:25;-4.20;76.20
15900;DHT22;8048;50.644;6.184;2024-01-10T07:03:52;-4.20;75.90
15900;DHT22;8048;50.644;6.184;2024-01-10T07:06:18;-4.30;75.50
15900;DHT22;8048;50.644;6.184;2024-01-10T07:08:44;-4.30;76.60
15900;DHT22;8048;50.644;6.184;2024-01-10T07:11:12;-4.30;77.00
15900;DHT22;8048;50.644;6.184;2024-01-10T07:13:38;-4.40;77.30
15900;DHT22;8048;50.644;6.184;2024-01-10T07:16:04;-4.30;77.30
15900;DHT22;8048;50.644;6.184;2024-01-10T07:18:29;-4.40;77.10
15900;DHT22;8048;50.644;6.184;2024-01-10T07:20:56;-4.40;77.60
15900;DHT22;8048;50.644;6.184;2024-01-10T07:23:22;-4.40;77.20
15900;DHT22;8048;50.644;6.184;2024-01-10T07:25:50;-4.30;78.10
15900;DHT22;8048;50.644;6.184;2024-01-10T07:28:16;-4.30;77.70
15900;DHT22;8048;50.644;6.184;2024-01-10T07:30:43;-4.30;77.80
15900;DHT22;8048;50.644;6.184;2024-01-10T07:33:09;-4.20;79.70
15900;DHT22;8048;50.644;6.184;2024-01-10T07:35:35;-4.10;79.70
15900;DHT22;8048;50.644;6.184;2024-01-10T07:38:00;-4.10;77.00
15900;DHT22;8048;50.644;6.184;2024-01-10T07:40:26;-4.10;77.50
15900;DHT22;8048;50.644;6.184;2024-01-10T07:42:51;-4.10;77.90
15900;DHT22;8048;50.644;6.184;2024-01-10T07:45:17;-4.10;77.50
15900;DHT22;8048;50.644;6.184;2024-01-10T07:47:43;-4.10;77.00
15900;DHT22;8048;50.644;6.184;2024-01-10T07:50:10;-4.10;75.80
15900;DHT22;8048;50.644;6.184;2024-01-10T07:52:39;-4.20;77.20
15900;DHT22;8048;50.644;6.184;2024-01-10T07:55:05;-4.20;77.70
15900;DHT22;8048;50.644;6.184;2024-01-10T07:57:33;-4.20;77.50
15900;DHT22;8048;50.644;6.184;2024-01-10T07:59:59;-4.20;77.30
15900;DHT22;8048;50.644;6.184;2024-01-10T08:02:25;-4.20;76.50
15900;DHT22;8048;50.644;6.184;2024-01-10T08:04:50;-4.10;78.50
15900;DHT22;8048;50.644;6.184;2024-01-10T08:07:16;-4.10;79.80
15900;DHT22;8048;50.644;6.184;2024-01-10T08:09:42;-4.10;77.90
15900;DHT22;8048;50.644;6.184;2024-01-10T08:12:08;-4.10;77.20
15900;DHT22;8048;50.644;6.184;2024-01-10T08:14:33;-4.10;78.20
15900;DHT22;8048;50.644;6.184;2024-01-10T08:16:59;-4.00;78.50
15900;DHT22;8048;50.644;6.184;2024-01-10T08:19:26;-4.00;77.50
15900;DHT22;8048;50.644;6.184;2024-01-10T08:21:55;-3.90;77.40
15900;DHT22;8048;50.644;6.184;2024-01-10T08:24:20;-3.80;77.00
15900;DHT22;8048;50.644;6.184;2024-01-10T08:26:47;-3.80;76.00
15900;DHT22;8048;50.644;6.184;2024-01-10T08:29:14;-3.80;76.40
15900;DHT22;8048;50.644;6.184;2024-01-10T08:31:40;-3.80;75.10
15900;DHT22;8048;50.644;6.184;2024-01-10T08:34:06;-3.80;77.20
15900;DHT22;8048;50.644;6.184;2024-01-10T08:36:31;-3.80;75.90
15900;DHT22;8048;50.644;6.184;2024-01-10T08:38:57;-3.70;75.10
15900;DHT22;8048;50.644;6.184;2024-01-10T08:41:22;-3.60;76.50
15900;DHT22;8048;50.644;6.184;2024-01-10T08:43:48;-3.60;75.00
15900;DHT22;8048;50.644;6.184;2024-01-10T08:46:14;-3.40;76.20
15900;DHT22;8048;50.644;6.184;2024-01-10T08:48:39;-3.30;75.80
15900;DHT22;8048;50.644;6.184;2024-01-10T08:51:05;-3.30;78.50
15900;DHT22;8048;50.644;6.184;2024-01-10T08:53:30;-3.20;78.40
15900;DHT22;8048;50.644;6.184;2024-01-10T08:55:56;-3.20;76.90
15900;DHT22;8048;50.644;6.184;2024-01-10T08:58:21;-3.00;77.90
15900;DHT22;8048;50.644;6.184;2024-01-10T09:00:47;-3.00;75.50
15900;DHT22;8048;50.644;6.184;2024-01-10T09:03:13;-3.10;74.20
15900;DHT22;8048;50.644;6.184;2024-01-10T09:05:38;-3.00;76.70
15900;DHT22;8048;50.644;6.184;2024-01-10T09:08:04;-2.90;80.10
15900;DHT22;8048;50.644;6.184;2024-01-10T09:10:30;-2.80;79.90
15900;DHT22;8048;50.644;6.184;2024-01-10T09:12:58;-2.50;85.70
15900;DHT22;8048;50.644;6.184;2024-01-10T09:15:24;-2.40;76.30
15900;DHT22;8048;50.644;6.184;2024-01-10T09:17:50;-2.50;71.70
15900;DHT22;8048;50.644;6.184;2024-01-10T09:20:17;-2.40;77.80
15900;DHT22;8048;50.644;6.184;2024-01-10T09:22:43;-2.40;72.80
15900;DHT22;8048;50.644;6.184;2024-01-10T09:25:09;-2.30;75.10
15900;DHT22;8048;50.644;6.184;2024-01-10T09:27:38;-2.20;78.70
15900;DHT22;8048;50.644;6.184;2024-01-10T09:30:06;-2.20;73.40
15900;DHT22;8048;50.644;6.184;2024-01-10T09:32:34;-2.10;72.20
15900;DHT22;8048;50.644;6.184;2024-01-10T09:35:00;-2.10;72.50
15900;DHT22;8048;50.644;6.184;2024-01-10T09:37:26;-2.00;73.90
15900;DHT22;8048;50.644;6.184;2024-01-10T09:39:51;-2.00;70.80
15900;DHT22;8048;50.644;6.184;2024-01-10T09:42:18;-1.90;69.00
15900;DHT22;8048;50.644;6.184;2024-01-10T09:44:45;-1.80;72.10
15900;DHT22;8048;50.644;6.184;2024-01-10T09:47:11;-1.60;71.00
15900;DHT22;8048;50.644;6.184;2024-01-10T09:49:38;-1.40;69.00
15900;DHT22;8048;50.644;6.184;2024-01-10T09:52:04;-1.30;69.80
15900;DHT22;8048;50.644;6.184;2024-01-10T09:54:33;-1.10;70.30
15900;DHT22;8048;50.644;6.184;2024-01-10T09:57:01;-1.10;67.60
15900;DHT22;8048;50.644;6.184;2024-01-10T09:59:27;-1.10;66.20
15900;DHT22;8048;50.644;6.184;2024-01-10T10:01:52;-1.40;64.30
15900;DHT22;8048;50.644;6.184;2024-01-10T10:04:19;-1.50;64.00
15900;DHT22;8048;50.644;6.184;2024-01-10T10:06:45;-1.50;66.50
15900;DHT22;8048;50.644;6.184;2024-01-10T10:09:12;-1.40;66.10
15900;DHT22;8048;50.644;6.184;2024-01-10T10:11:37;-1.00;69.00
15900;DHT22;8048;50.644;6.184;2024-01-10T10:14:17;-0.60;67.90
15900;DHT22;8048;50.644;6.184;2024-01-10T10:16:43;-0.30;65.50
15900;DHT22;8048;50.644;6.184;2024-01-10T10:19:08;0.00;65.40
15900;DHT22;8048;50.644;6.184;2024-01-10T10:21:36;0.20;63.70
15900;DHT22;8048;50.644;6.184;2024-01-10T10:24:03;0.20;65.80
15900;DHT22;8048;50.644;6.184;2024-01-10T10:26:33;0.40;66.70
15900;DHT22;8048;50.644;6.184;2024-01-10T10:28:59;0.80;67.10
15900;DHT22;8048;50.644;6.184;2024-01-10T10:31:25;1.20;68.80
15900;DHT22;8048;50.644;6.184;2024-01-10T10:33:51;1.30;64.30
15900;DHT22;8048;50.644;6.184;2024-01-10T10:36:18;1.40;63.80
15900;DHT22;8048;50.644;6.184;2024-01-10T10:38:44;1.20;62.80
15900;DHT22;8048;50.644;6.184;2024-01-10T10:41:09;1.30;67.20
15900;DHT22;8048;50.644;6.184;2024-01-10T10:43:39;1.30;64.90
15900;DHT22;8048;50.644;6.184;2024-01-10T10:46:06;1.30;69.60
15900;DHT22;8048;50.644;6.184;2024-01-10T10:48:35;1.10;67.90
15900;DHT22;8048;50.644;6.184;2024-01-10T10:51:05;1.20;70.80
15900;DHT22;8048;50.644;6.184;2024-01-10T10:53:36;1.10;67.20
15900;DHT22;8048;50.644;6.184;2024-01-10T10:56:06;0.80;66.20
15900;DHT22;8048;50.644;6.184;2024-01-10T10:58:34;0.60;65.60
15900;DHT22;8048;50.644;6.184;2024-01-10T11:01:06;0.30;66.50
15900;DHT22;8048;50.644;6.184;2024-01-10T11:03:37;-0.10;67.20
15900;DHT22;8048;50.644;6.184;2024-01-10T11:06:04;-0.20;68.90
15900;DHT22;8048;50.644;6.184;2024-01-10T11:08:36;-0.10;71.20
15900;DHT22;8048;50.644;6.184;2024-01-10T11:11:06;-0.10;72.00
15900;DHT22;8048;50.644;6.184;2024-01-10T11:16:30;0.00;71.50
15900;DHT22;8048;50.644;6.184;2024-01-10T11:24:10;-0.10;71.40
15900;DHT22;8048;50.644;6.184;2024-01-10T11:26:39;-0.10;71.90
15900;DHT22;8048;50.644;6.184;2024-01-10T11:29:05;-0.10;71.80
15900;DHT22;8048;50.644;6.184;2024-01-10T11:31:32;-0.10;73.00
15900;DHT22;8048;50.644;6.184;2024-01-10T11:33:58;-0.10;72.30
15900;DHT22;8048;50.644;6.184;2024-01-10T11:36:25;0.00;73.90
15900;DHT22;8048;50.644;6.184;2024-01-10T11:41:35;0.30;71.80
15900;DHT22;8048;50.644;6.184;2024-01-10T11:46:56;0.90;76.60
15900;DHT22;8048;50.644;6.184;2024-01-10T11:49:23;0.90;70.80
15900;DHT22;8048;50.644;6.184;2024-01-10T11:51:54;1.30;72.70
15900;DHT22;8048;50.644;6.184;2024-01-10T11:54:41;1.60;73.50
15900;DHT22;8048;50.644;6.184;2024-01-10T11:57:33;2.10;72.90
15900;DHT22;8048;50.644;6.184;2024-01-10T11:59:59;2.60;67.20
15900;DHT22;8048;50.644;6.184;2024-01-10T12:02:26;3.00;65.50
15900;DHT22;8048;50.644;6.184;2024-01-10T12:04:53;3.50;66.30
15900;DHT22;8048;50.644;6.184;2024-01-10T12:07:19;3.80;64.00
15900;DHT22;8048;50.644;6.184;2024-01-10T12:09:45;4.10;65.30
15900;DHT22;8048;50.644;6.184;2024-01-10T12:12:12;4.10;61.30
15900;DHT22;8048;50.644;6.184;2024-01-10T12:14:39;4.10;62.90
15900;DHT22;8048;50.644;6.184;2024-01-10T12:17:05;3.90;65.10
15900;DHT22;8048;50.644;6.184;2024-01-10T12:19:34;4.10;67.60
15900;DHT22;8048;50.644;6.184;2024-01-10T12:22:00;4.20;63.20
15900;DHT22;8048;50.644;6.184;2024-01-10T12:24:28;4.30;65.70
15900;DHT22;8048;50.644;6.184;2024-01-10T12:26:56;4.70;64.60
15900;DHT22;8048;50.644;6.184;2024-01-10T12:29:22;5.20;67.10
15900;DHT22;8048;50.644;6.184;2024-01-10T12:31:49;5.80;67.50
15900;DHT22;8048;50.644;6.184;2024-01-10T12:34:15;6.30;62.20
15900;DHT22;8048;50.644;6.184;2024-01-10T12:36:44;6.60;60.50
15900;DHT22;8048;50.644;6.184;2024-01-10T12:39:10;7.20;61.60
15900;DHT22;8048;50.644;6.184;2024-01-10T12:41:37;7.50;58.40
15900;DHT22;8048;50.644;6.184;2024-01-10T12:44:04;8.00;61.40
15900;DHT22;8048;50.644;6.184;2024-01-10T12:46:31;8.60;60.30
15900;DHT22;8048;50.644;6.184;2024-01-10T12:49:01;9.20;59.70
15900;DHT22;8048;50.644;6.184;2024-01-10T12:51:27;9.10;55.40
15900;DHT22;8048;50.644;6.184;2024-01-10T12:53:54;8.80;55.10
15900;DHT22;8048;50.644;6.184;2024-01-10T12:56:20;8.60;54.30
15900;DHT22;8048;50.644;6.184;2024-01-10T12:58:46;8.70;56.80
15900;DHT22;8048;50.644;6.184;2024-01-10T13:01:11;8.70;56.10
15900;DHT22;8048;50.644;6.184;2024-01-10T13:03:38;9.10;55.90
15900;DHT22;8048;50.644;6.184;2024-01-10T13:06:04;9.30;54.50
15900;DHT22;8048;50.644;6.184;2024-01-10T13:08:30;8.80;53.10
15900;DHT22;8048;50.644;6.184;2024-01-10T13:10:57;8.20;54.30
15900;DHT22;8048;50.644;6.184;2024-01-10T13:13:23;7.70;54.50
15900;DHT22;8048;50.644;6.184;2024-01-10T13:15:49;7.30;55.90
15900;DHT22;8048;50.644;6.184;2024-01-10T13:18:14;7.00;56.10
15900;DHT22;8048;50.644;6.184;2024-01-10T13:20:43;6.70;55.70
15900;DHT22;8048;50.644;6.184;2024-01-10T13:23:09;6.40;56.70
15900;DHT22;8048;50.644;6.184;2024-01-10T13:25:35;6.10;57.20
15900;DHT22;8048;50.644;6.184;2024-01-10T13:28:05;6.00;57.80
15900;DHT22;8048;50.644;6.184;2024-01-10T13:30:31;5.80;57.20
15900;DHT22;8048;50.644;6.184;2024-01-10T13:32:56;6.20;58.60
15900;DHT22;8048;50.644;6.184;2024-01-10T13:35:23;6.80;59.10
15900;DHT22;8048;50.644;6.184;2024-01-10T13:37:49;7.40;58.30
15900;DHT22;8048;50.644;6.184;2024-01-10T13:40:15;7.90;57.60
15900;DHT22;8048;50.644;6.184;2024-01-10T13:42:41;7.70;56.50
15900;DHT22;8048;50.644;6.184;2024-01-10T13:45:08;8.10;58.10
15900;DHT22;8048;50.644;6.184;2024-01-10T13:47:36;8.50;58.90
15900;DHT22;8048;50.644;6.184;2024-01-10T13:50:03;8.80;58.90
15900;DHT22;8048;50.644;6.184;2024-01-10T13:52:29;9.20;58.20
15900;DHT22;8048;50.644;6.184;2024-01-10T13:54:55;9.60;58.40
15900;DHT22;8048;50.644;6.184;2024-01-10T13:57:21;9.20;54.80
15900;DHT22;8048;50.644;6.184;2024-01-10T13:59:47;8.60;55.20
15900;DHT22;8048;50.644;6.184;2024-01-10T14:02:13;8.10;56.60
15900;DHT22;8048;50.644;6.184;2024-01-10T14:04:39;7.60;56.30
15900;DHT22;8048;50.644;6.184;2024-01-10T14:07:05;7.30;59.40
15900;DHT22;8048;50.644;6.184;2024-01-10T14:09:31;7.40;58.80
15900;DHT22;8048;50.644;6.184;2024-01-10T14:11:56;7.30;57.90
15900;DHT22;8048;50.644;6.184;2024-01-10T14:14:22;7.40;58.40
15900;DHT22;8048;50.644;6.184;2024-01-10T14:16:47;7.50;58.50
15900;DHT22;8048;50.644;6.184;2024-01-10T14:19:13;7.50;58.70
15900;DHT22;8048;50.644;6.184;2024-01-10T14:21:39;7.60;58.60
15900;DHT22;8048;50.644;6.184;2024-01-10T14:24:04;7.40;57.80
15900;DHT22;8048;50.644;6.184;2024-01-10T14:26:30;7.40;58.40
15900;DHT22;8048;50.644;6.184;2024-01-10T14:28:55;7.30;58.50
15900;DHT22;8048;50.644;6.184;2024-01-10T14:31:22;7.00;57.20
15900;DHT22;8048;50.644;6.184;2024-01-10T14:33:48;6.80;58.60
15900;DHT22;8048;50.644;6.184;2024-01-10T14:36:14;6.60;58.40
15900;DHT22;8048;50.644;6.184;2024-01-10T14:38:40;6.40;58.60
15900;DHT22;8048;50.644;6.184;2024-01-10T14:41:09;6.20;59.20
15900;DHT22;8048;50.644;6.184;2024-01-10T14:43:36;6.20;59.20
15900;DHT22;8048;50.644;6.184;2024-01-10T14:46:02;6.10;60.80
15900;DHT22;8048;50.644;6.184;2024-01-10T14:48:28;5.70;58.70
15900;DHT22;8048;50.644;6.184;2024-01-10T14:50:53;5.30;59.30
15900;DHT22;8048;50.644;6.184;2024-01-10T14:53:19;5.20;61.80
15900;DHT22;8048;50.644;6.184;2024-01-10T14:55:44;5.20;63.70
15900;DHT22;8048;50.644;6.184;2024-01-10T14:58:10;5.10;61.40
15900;DHT22;8048;50.644;6.184;2024-01-10T15:00:36;4.90;59.80
15900;DHT22;8048;50.644;6.184;2024-01-10T15:03:01;4.70;61.40
15900;DHT22;8048;50.644;6.184;2024-01-10T15:05:29;4.40;63.70
15900;DHT22;8048;50.644;6.184;2024-01-10T15:07:55;4.30;63.70
15900;DHT22;8048;50.644;6.184;2024-01-10T15:10:20;4.20;67.20
15900;DHT22;8048;50.644;6.184;2024-01-10T15:12:46;4.20;64.40
15900;DHT22;8048;50.644;6.184;2024-01-10T15:15:11;4.10;63.50
15900;DHT22;8048;50.644;6.184;2024-01-10T15:17:37;3.90;65.20
15900;DHT22;8048;50.644;6.184;2024-01-10T15:20:03;3.80;67.10
15900;DHT22;8048;50.644;6.184;2024-01-10T15:22:29;3.70;65.30
15900;DHT22;8048;50.644;6.184;2024-01-10T15:24:54;3.60;65.70
15900;DHT22;8048;50.644;6.184;2024-01-10T15:27:20;3.50;66.10
15900;DHT22;8048;50.644;6.184;2024-01-10T15:29:46;3.40;65.30
15900;DHT22;8048;50.644;6.184;2024-01-10T15:32:11;3.20;65.40
15900;DHT22;8048;50.644;6.184;2024-01-10T15:34:37;3.10;66.60
15900;DHT22;8048;50.644;6.184;2024-01-10T15:37:03;2.80;66.20
15900;DHT22;8048;50.644;6.184;2024-01-10T15:39:29;2.70;67.50
15900;DHT22;8048;50.644;6.184;2024-01-10T15:41:55;2.70;68.60
15900;DHT22;8048;50.644;6.184;2024-01-10T15:44:21;2.60;69.20
15900;DHT22;8048;50.644;6.184;2024-01-10T15:46:46;2.50;70.40
15900;DHT22;8048;50.644;6.184;2024-01-10T15:49:12;2.40;69.20
15900;DHT22;8048;50.644;6.184;2024-01-10T15:51:38;2.30;69.30
15900;DHT22;8048;50.644;6.184;2024-01-10T15:54:04;2.30;69.70
15900;DHT22;8048;50.644;6.184;2024-01-10T15:56:29;2.10;70.10